Pagina principală
METAR-TAF:

METAR-TAF

Aeroporturi :

Shawnee Regional Airport

Shawnee, Oklahoma, Statele Unite ale Americii

Latitudine: 35-21-26N, longitudine: 096-56-34W, elevație: 327 m

Observații meteo curente

Raportul a fost făcut în urmă cu 33 de minute, la 15:55 UTC
Vânt 17 kt de la Sud cu rafale de până la 22 kt
Temperatură 28°C
Umiditate 62%
Presiune 1006 hPa
Vizibilitate: 16.1 km
Nori fragmentați la o înălțime de 2500 picior

METAR: KSNL 211555Z AUTO 19017G22KT 10SM BKN025 28/20 A2970 RMK AO2 T02780201

Ora: 11:28 (16:28 UTC)


TAF: lipsă

Observații și prognoze meteo pentru peste 4.000 de aeroporturi (rapoarte METAR și TAF).

Stațiile disponibile sunt reprezentate pe hartă prin puncte galbene și roșii.

Țineți indicatorul mouse-ului pe punctul dorit pentru a vedea denumirea stației.

Apoi, faceți clic pentru a vedea observațiile și prognozele meteorologice.

Pentru a schimba harta: Pentru mărire, faceți clic pe butoanele verzi cu cruce neagră; pentru micșorare, pe butonul verde cu o liniuță; pentru hărți învecinate, pe săgețile verzi.


METAR-TAF: